sensor_id;sensor_type;location;lat;lon;timestamp;pressure;altitude;pressure_sealevel;temperature;humidity
11124;BME280;5616;42.692;23.312;2023-06-22T00:01:17;95534.13;;;20.35;81.30
11124;BME280;5616;42.692;23.312;2023-06-22T00:03:44;95533.19;;;20.41;80.97
11124;BME280;5616;42.692;23.312;2023-06-22T00:06:10;95530.81;;;20.40;81.12
11124;BME280;5616;42.692;23.312;2023-06-22T00:08:37;95525.56;;;20.40;80.97
11124;BME280;5616;42.692;23.312;2023-06-22T00:11:04;95526.47;;;20.45;81.10
11124;BME280;5616;42.692;23.312;2023-06-22T00:13:32;95527.84;;;20.48;81.44
11124;BME280;5616;42.692;23.312;2023-06-22T00:15:59;95531.47;;;20.47;81.34
11124;BME280;5616;42.692;23.312;2023-06-22T00:18:26;95524.31;;;20.42;81.22
11124;BME280;5616;42.692;23.312;2023-06-22T00:20:54;95517.00;;;20.44;81.80
11124;BME280;5616;42.692;23.312;2023-06-22T00:23:24;95522.03;;;20.46;82.32
11124;BME280;5616;42.692;23.312;2023-06-22T00:25:51;95517.59;;;20.46;82.29
11124;BME280;5616;42.692;23.312;2023-06-22T00:28:18;95511.44;;;20.41;82.50
11124;BME280;5616;42.692;23.312;2023-06-22T00:30:46;95504.47;;;20.46;82.81
11124;BME280;5616;42.692;23.312;2023-06-22T00:33:13;95510.97;;;20.44;82.77
11124;BME280;5616;42.692;23.312;2023-06-22T00:35:41;95504.47;;;20.46;82.20
11124;BME280;5616;42.692;23.312;2023-06-22T00:38:08;95510.63;;;20.40;82.16
11124;BME280;5616;42.692;23.312;2023-06-22T00:40:35;95498.63;;;20.44;82.37
11124;BME280;5616;42.692;23.312;2023-06-22T00:43:02;95509.22;;;20.49;82.60
11124;BME280;5616;42.692;23.312;2023-06-22T00:45:30;95504.56;;;20.51;82.15
11124;BME280;5616;42.692;23.312;2023-06-22T00:47:58;95503.66;;;20.46;81.75
11124;BME280;5616;42.692;23.312;2023-06-22T00:50:27;95506.06;;;20.47;81.95
11124;BME280;5616;42.692;23.312;2023-06-22T00:53:00;95510.97;;;20.44;81.63
11124;BME280;5616;42.692;23.312;2023-06-22T00:55:31;95507.66;;;20.37;81.16
11124;BME280;5616;42.692;23.312;2023-06-22T00:57:59;95510.28;;;20.37;81.59
11124;BME280;5616;42.692;23.312;2023-06-22T01:00:26;95509.97;;;20.33;81.33
11124;BME280;5616;42.692;23.312;2023-06-22T01:02:53;95517.00;;;20.21;81.59
11124;BME280;5616;42.692;23.312;2023-06-22T01:05:22;95519.28;;;20.17;81.20
11124;BME280;5616;42.692;23.312;2023-06-22T01:08:00;95522.94;;;20.28;82.15
11124;BME280;5616;42.692;23.312;2023-06-22T01:10:36;95522.03;;;20.11;81.97
11124;BME280;5616;42.692;23.312;2023-06-22T01:13:09;95504.94;;;19.74;83.08
11124;BME280;5616;42.692;23.312;2023-06-22T01:15:44;95514.50;;;19.80;83.71
11124;BME280;5616;42.692;23.312;2023-06-22T01:18:17;95514.97;;;19.88;82.69
11124;BME280;5616;42.692;23.312;2023-06-22T01:20:46;95514.84;;;19.95;82.54
11124;BME280;5616;42.692;23.312;2023-06-22T01:23:21;95521.38;;;20.04;82.74
11124;BME280;5616;42.692;23.312;2023-06-22T01:25:59;95518.75;;;20.04;82.62
11124;BME280;5616;42.692;23.312;2023-06-22T01:28:47;95520.91;;;20.07;81.20
11124;BME280;5616;42.692;23.312;2023-06-22T01:31:16;95526.94;;;19.96;80.93
11124;BME280;5616;42.692;23.312;2023-06-22T01:33:54;95533.75;;;19.97;81.64
11124;BME280;5616;42.692;23.312;2023-06-22T01:36:23;95534.22;;;19.82;82.75
11124;BME280;5616;42.692;23.312;2023-06-22T01:38:52;95530.44;;;19.78;83.26
11124;BME280;5616;42.692;23.312;2023-06-22T01:41:20;95535.84;;;19.83;82.96
11124;BME280;5616;42.692;23.312;2023-06-22T01:43:49;95538.56;;;19.88;82.74
11124;BME280;5616;42.692;23.312;2023-06-22T01:46:17;95537.88;;;19.93;83.18
11124;BME280;5616;42.692;23.312;2023-06-22T01:48:45;95533.66;;;19.92;82.75
11124;BME280;5616;42.692;23.312;2023-06-22T01:51:13;95538.69;;;19.93;82.56
11124;BME280;5616;42.692;23.312;2023-06-22T01:53:40;95545.03;;;19.74;83.48
11124;BME280;5616;42.692;23.312;2023-06-22T01:56:07;95541.03;;;19.60;83.65
11124;BME280;5616;42.692;23.312;2023-06-22T01:58:40;95537.84;;;19.58;84.10
11124;BME280;5616;42.692;23.312;2023-06-22T02:01:12;95532.03;;;19.56;83.12
11124;BME280;5616;42.692;23.312;2023-06-22T02:03:42;95547.31;;;19.59;83.44
11124;BME280;5616;42.692;23.312;2023-06-22T02:06:16;95550.44;;;19.49;83.35
11124;BME280;5616;42.692;23.312;2023-06-22T02:08:48;95560.25;;;19.24;84.15
11124;BME280;5616;42.692;23.312;2023-06-22T02:11:18;95562.06;;;19.24;84.35
11124;BME280;5616;42.692;23.312;2023-06-22T02:13:47;95549.34;;;19.27;84.19
11124;BME280;5616;42.692;23.312;2023-06-22T02:16:16;95544.63;;;19.18;84.90
11124;BME280;5616;42.692;23.312;2023-06-22T02:18:46;95534.56;;;19.03;84.84
11124;BME280;5616;42.692;23.312;2023-06-22T02:21:14;95537.94;;;19.22;83.99
11124;BME280;5616;42.692;23.312;2023-06-22T02:23:41;95541.03;;;19.30;84.35
11124;BME280;5616;42.692;23.312;2023-06-22T02:26:08;95543.16;;;19.40;83.64
11124;BME280;5616;42.692;23.312;2023-06-22T02:28:35;95542.47;;;19.44;83.54
11124;BME280;5616;42.692;23.312;2023-06-22T02:31:01;95538.47;;;19.42;83.90
11124;BME280;5616;42.692;23.312;2023-06-22T02:33:30;95532.47;;;19.23;84.87
11124;BME280;5616;42.692;23.312;2023-06-22T02:35:57;95534.81;;;19.13;85.88
11124;BME280;5616;42.692;23.312;2023-06-22T02:38:24;95535.31;;;19.22;86.06
11124;BME280;5616;42.692;23.312;2023-06-22T02:40:51;95543.63;;;19.19;86.56
11124;BME280;5616;42.692;23.312;2023-06-22T02:43:18;95543.31;;;19.27;85.59
11124;BME280;5616;42.692;23.312;2023-06-22T02:45:44;95546.63;;;19.34;85.76
11124;BME280;5616;42.692;23.312;2023-06-22T02:48:11;95546.81;;;19.50;89.83
11124;BME280;5616;42.692;23.312;2023-06-22T02:50:40;95548.19;;;19.53;87.70
11124;BME280;5616;42.692;23.312;2023-06-22T02:53:07;95546.94;;;19.56;84.35
11124;BME280;5616;42.692;23.312;2023-06-22T02:55:37;95536.69;;;19.66;91.77
11124;BME280;5616;42.692;23.312;2023-06-22T02:58:05;95537.06;;;19.69;90.68
11124;BME280;5616;42.692;23.312;2023-06-22T03:00:35;95544.25;;;19.74;87.99
11124;BME280;5616;42.692;23.312;2023-06-22T03:03:02;95551.50;;;19.60;84.52
11124;BME280;5616;42.692;23.312;2023-06-22T03:05:29;95542.25;;;19.46;84.45
11124;BME280;5616;42.692;23.312;2023-06-22T03:07:59;95538.47;;;19.42;84.81
11124;BME280;5616;42.692;23.312;2023-06-22T03:10:29;95555.22;;;19.41;85.22
11124;BME280;5616;42.692;23.312;2023-06-22T03:12:55;95549.56;;;19.26;85.63
11124;BME280;5616;42.692;23.312;2023-06-22T03:15:22;95563.56;;;19.31;85.48
11124;BME280;5616;42.692;23.312;2023-06-22T03:17:51;95563.38;;;19.33;85.50
11124;BME280;5616;42.692;23.312;2023-06-22T03:20:17;95571.28;;;19.15;86.10
11124;BME280;5616;42.692;23.312;2023-06-22T03:22:44;95577.56;;;18.96;87.61
11124;BME280;5616;42.692;23.312;2023-06-22T03:25:12;95577.81;;;19.06;88.02
11124;BME280;5616;42.692;23.312;2023-06-22T03:27:42;95575.03;;;19.19;87.31
11124;BME280;5616;42.692;23.312;2023-06-22T03:30:11;95577.16;;;19.10;87.67
11124;BME280;5616;42.692;23.312;2023-06-22T03:32:38;95573.72;;;19.10;87.34
11124;BME280;5616;42.692;23.312;2023-06-22T03:35:06;95581.75;;;19.15;86.99
11124;BME280;5616;42.692;23.312;2023-06-22T03:37:35;95578.78;;;19.23;86.23
11124;BME280;5616;42.692;23.312;2023-06-22T03:40:02;95589.56;;;19.33;85.74
11124;BME280;5616;42.692;23.312;2023-06-22T03:42:33;95585.91;;;19.34;86.09
11124;BME280;5616;42.692;23.312;2023-06-22T03:45:00;95586.28;;;19.37;85.94
11124;BME280;5616;42.692;23.312;2023-06-22T03:47:27;95593.72;;;19.40;85.63
11124;BME280;5616;42.692;23.312;2023-06-22T03:49:54;95598.38;;;19.38;85.35
11124;BME280;5616;42.692;23.312;2023-06-22T03:52:20;95603.50;;;19.45;85.46
11124;BME280;5616;42.692;23.312;2023-06-22T03:54:48;95601.59;;;19.52;85.02
11124;BME280;5616;42.692;23.312;2023-06-22T03:57:15;95604.69;;;19.61;84.51
11124;BME280;5616;42.692;23.312;2023-06-22T03:59:43;95605.75;;;19.60;84.25
11124;BME280;5616;42.692;23.312;2023-06-22T04:02:10;95594.47;;;19.59;84.49
11124;BME280;5616;42.692;23.312;2023-06-22T04:04:37;95602.06;;;19.61;84.28
11124;BME280;5616;42.692;23.312;2023-06-22T04:07:04;95610.06;;;19.66;84.23
11124;BME280;5616;42.692;23.312;2023-06-22T04:09:31;95602.88;;;19.61;84.53
11124;BME280;5616;42.692;23.312;2023-06-22T04:11:58;95596.75;;;19.67;83.41
11124;BME280;5616;42.692;23.312;2023-06-22T04:14:25;95588.91;;;19.67;83.26
11124;BME280;5616;42.692;23.312;2023-06-22T04:16:53;95583.97;;;19.71;82.79
11124;BME280;5616;42.692;23.312;2023-06-22T04:19:19;95584.22;;;19.81;82.95
11124;BME280;5616;42.692;23.312;2023-06-22T04:21:46;95574.91;;;19.85;82.42
11124;BME280;5616;42.692;23.312;2023-06-22T04:24:14;95575.59;;;19.92;82.32
11124;BME280;5616;42.692;23.312;2023-06-22T04:26:41;95571.84;;;19.99;83.15
11124;BME280;5616;42.692;23.312;2023-06-22T04:29:11;95569.56;;;20.03;83.32
11124;BME280;5616;42.692;23.312;2023-06-22T04:31:37;95573.66;;;20.10;82.06
11124;BME280;5616;42.692;23.312;2023-06-22T04:34:06;95574.69;;;20.21;81.29
11124;BME280;5616;42.692;23.312;2023-06-22T04:36:35;95584.44;;;20.32;80.43
11124;BME280;5616;42.692;23.312;2023-06-22T04:39:06;95584.09;;;20.40;80.08
11124;BME280;5616;42.692;23.312;2023-06-22T04:41:35;95577.22;;;20.39;79.30
11124;BME280;5616;42.692;23.312;2023-06-22T04:44:08;95583.03;;;20.41;80.35
11124;BME280;5616;42.692;23.312;2023-06-22T04:46:35;95580.56;;;20.35;80.75
11124;BME280;5616;42.692;23.312;2023-06-22T04:49:06;95583.03;;;20.41;81.36
11124;BME280;5616;42.692;23.312;2023-06-22T04:51:37;95585.44;;;20.31;83.02
11124;BME280;5616;42.692;23.312;2023-06-22T04:54:04;95591.41;;;20.38;83.07
11124;BME280;5616;42.692;23.312;2023-06-22T04:56:31;95598.88;;;20.69;81.21
11124;BME280;5616;42.692;23.312;2023-06-22T04:58:58;95599.66;;;20.93;78.40
11124;BME280;5616;42.692;23.312;2023-06-22T05:01:25;95597.22;;;21.15;77.10
11124;BME280;5616;42.692;23.312;2023-06-22T05:03:52;95602.66;;;21.25;77.44
11124;BME280;5616;42.692;23.312;2023-06-22T05:06:22;95596.28;;;21.49;77.08
11124;BME280;5616;42.692;23.312;2023-06-22T05:08:51;95585.19;;;21.75;75.96
11124;BME280;5616;42.692;23.312;2023-06-22T05:11:17;95592.94;;;21.99;75.49
11124;BME280;5616;42.692;23.312;2023-06-22T05:13:44;95584.81;;;22.17;72.79
11124;BME280;5616;42.692;23.312;2023-06-22T05:16:11;95589.94;;;22.78;69.82
11124;BME280;5616;42.692;23.312;2023-06-22T05:18:38;95589.97;;;23.27;67.00
11124;BME280;5616;42.692;23.312;2023-06-22T05:21:04;95582.09;;;23.80;65.67
11124;BME280;5616;42.692;23.312;2023-06-22T05:23:33;95598.63;;;24.02;64.96
11124;BME280;5616;42.692;23.312;2023-06-22T05:25:59;95601.28;;;24.34;64.08
11124;BME280;5616;42.692;23.312;2023-06-22T05:28:26;95594.53;;;24.95;60.71
11124;BME280;5616;42.692;23.312;2023-06-22T05:30:53;95595.22;;;25.37;58.25
11124;BME280;5616;42.692;23.312;2023-06-22T05:33:20;95594.81;;;25.76;56.03
11124;BME280;5616;42.692;23.312;2023-06-22T05:35:47;95604.34;;;26.37;54.93
11124;BME280;5616;42.692;23.312;2023-06-22T05:38:13;95601.13;;;26.76;52.98
11124;BME280;5616;42.692;23.312;2023-06-22T05:40:42;95606.88;;;27.13;51.64
11124;BME280;5616;42.692;23.312;2023-06-22T05:43:08;95621.88;;;27.43;50.39
11124;BME280;5616;42.692;23.312;2023-06-22T05:45:35;95611.81;;;27.83;50.00
11124;BME280;5616;42.692;23.312;2023-06-22T05:48:02;95614.38;;;27.99;48.39
11124;BME280;5616;42.692;23.312;2023-06-22T05:50:29;95614.91;;;27.96;47.94
11124;BME280;5616;42.692;23.312;2023-06-22T05:52:56;95615.69;;;28.35;47.44
11124;BME280;5616;42.692;23.312;2023-06-22T05:55:22;95615.00;;;28.82;45.94
11124;BME280;5616;42.692;23.312;2023-06-22T05:57:51;95628.31;;;29.05;44.78
11124;BME280;5616;42.692;23.312;2023-06-22T06:00:18;95619.47;;;29.57;43.75
11124;BME280;5616;42.692;23.312;2023-06-22T06:02:45;95617.53;;;30.00;43.47
11124;BME280;5616;42.692;23.312;2023-06-22T06:05:12;95616.38;;;30.57;42.78
11124;BME280;5616;42.692;23.312;2023-06-22T06:07:39;95613.66;;;30.89;42.72
11124;BME280;5616;42.692;23.312;2023-06-22T06:10:07;95618.00;;;30.85;41.44
11124;BME280;5616;42.692;23.312;2023-06-22T06:12:34;95611.63;;;31.00;42.05
11124;BME280;5616;42.692;23.312;2023-06-22T06:15:03;95602.19;;;31.43;39.77
11124;BME280;5616;42.692;23.312;2023-06-22T06:17:29;95601.91;;;31.45;39.54
11124;BME280;5616;42.692;23.312;2023-06-22T06:19:56;95602.69;;;31.95;39.17
11124;BME280;5616;42.692;23.312;2023-06-22T06:22:23;95602.31;;;32.24;37.61
11124;BME280;5616;42.692;23.312;2023-06-22T06:24:50;95604.97;;;33.64;36.27
11124;BME280;5616;42.692;23.312;2023-06-22T06:27:16;95604.69;;;33.91;34.54
11124;BME280;5616;42.692;23.312;2023-06-22T06:29:44;95598.41;;;35.81;31.86
11124;BME280;5616;42.692;23.312;2023-06-22T06:32:15;95608.75;;;37.34;30.46
11124;BME280;5616;42.692;23.312;2023-06-22T06:34:42;95609.25;;;38.28;27.80
11124;BME280;5616;42.692;23.312;2023-06-22T06:37:09;95602.72;;;38.57;28.28
11124;BME280;5616;42.692;23.312;2023-06-22T06:39:35;95595.88;;;39.53;26.03
11124;BME280;5616;42.692;23.312;2023-06-22T06:42:03;95601.91;;;39.00;26.77
11124;BME280;5616;42.692;23.312;2023-06-22T06:44:30;95592.22;;;39.14;27.10
11124;BME280;5616;42.692;23.312;2023-06-22T06:46:57;95588.44;;;37.37;29.36
11124;BME280;5616;42.692;23.312;2023-06-22T06:49:25;95588.16;;;34.87;32.71
11124;BME280;5616;42.692;23.312;2023-06-22T06:51:52;95581.41;;;34.72;34.67
11124;BME280;5616;42.692;23.312;2023-06-22T06:54:19;95578.78;;;34.55;35.88
11124;BME280;5616;42.692;23.312;2023-06-22T06:56:46;95577.41;;;34.32;35.65
11124;BME280;5616;42.692;23.312;2023-06-22T06:59:13;95580.81;;;35.13;34.54
11124;BME280;5616;42.692;23.312;2023-06-22T07:01:40;95574.59;;;37.38;32.30
11124;BME280;5616;42.692;23.312;2023-06-22T07:04:07;95576.09;;;39.18;26.75
11124;BME280;5616;42.692;23.312;2023-06-22T07:06:35;95577.38;;;39.90;25.31
11124;BME280;5616;42.692;23.312;2023-06-22T07:09:03;95580.22;;;41.45;24.63
11124;BME280;5616;42.692;23.312;2023-06-22T07:11:30;95585.97;;;41.70;23.82
11124;BME280;5616;42.692;23.312;2023-06-22T07:13:56;95583.50;;;42.88;22.94
11124;BME280;5616;42.692;23.312;2023-06-22T07:16:23;95582.00;;;42.94;21.87
11124;BME280;5616;42.692;23.312;2023-06-22T07:18:51;95576.47;;;43.92;21.83
11124;BME280;5616;42.692;23.312;2023-06-22T07:21:18;95586.13;;;44.83;21.77
11124;BME280;5616;42.692;23.312;2023-06-22T07:23:46;95579.88;;;45.64;20.50
11124;BME280;5616;42.692;23.312;2023-06-22T07:26:12;95580.88;;;46.19;20.19
11124;BME280;5616;42.692;23.312;2023-06-22T07:28:39;95582.97;;;46.70;19.50
11124;BME280;5616;42.692;23.312;2023-06-22T07:31:06;95580.47;;;46.93;18.08
11124;BME280;5616;42.692;23.312;2023-06-22T07:33:33;95586.50;;;47.25;19.09
11124;BME280;5616;42.692;23.312;2023-06-22T07:36:00;95581.09;;;47.59;18.35
11124;BME280;5616;42.692;23.312;2023-06-22T07:38:28;95586.50;;;46.70;19.67
11124;BME280;5616;42.692;23.312;2023-06-22T07:40:56;95586.72;;;46.25;19.00
11124;BME280;5616;42.692;23.312;2023-06-22T07:43:23;95587.38;;;47.12;18.44
11124;BME280;5616;42.692;23.312;2023-06-22T07:45:50;95582.72;;;47.05;18.48
11124;BME280;5616;42.692;23.312;2023-06-22T07:48:20;95579.72;;;46.13;18.84
11124;BME280;5616;42.692;23.312;2023-06-22T07:50:47;95585.75;;;45.16;20.70
11124;BME280;5616;42.692;23.312;2023-06-22T07:53:13;95579.47;;;44.73;21.75
11124;BME280;5616;42.692;23.312;2023-06-22T07:55:40;95577.97;;;43.79;22.49
11124;BME280;5616;42.692;23.312;2023-06-22T07:58:08;95581.81;;;43.16;24.23
11124;BME280;5616;42.692;23.312;2023-06-22T08:00:35;95573.25;;;43.14;23.85
11124;BME280;5616;42.692;23.312;2023-06-22T08:03:02;95570.22;;;41.79;24.99
11124;BME280;5616;42.692;23.312;2023-06-22T08:05:30;95566.44;;;40.86;26.50
11124;BME280;5616;42.692;23.312;2023-06-22T08:07:57;95564.22;;;41.96;23.79
11124;BME280;5616;42.692;23.312;2023-06-22T08:10:24;95567.25;;;43.42;23.14
11124;BME280;5616;42.692;23.312;2023-06-22T08:12:51;95554.81;;;44.20;21.46
11124;BME280;5616;42.692;23.312;2023-06-22T08:15:19;95544.13;;;43.76;22.74
11124;BME280;5616;42.692;23.312;2023-06-22T08:17:47;95554.63;;;42.36;23.60
11124;BME280;5616;42.692;23.312;2023-06-22T08:20:14;95548.94;;;42.48;24.18
11124;BME280;5616;42.692;23.312;2023-06-22T08:22:42;95548.06;;;42.77;24.22
11124;BME280;5616;42.692;23.312;2023-06-22T08:25:10;95551.50;;;43.14;22.86
11124;BME280;5616;42.692;23.312;2023-06-22T08:27:38;95552.72;;;42.77;22.43
11124;BME280;5616;42.692;23.312;2023-06-22T08:30:06;95548.16;;;41.55;24.92
11124;BME280;5616;42.692;23.312;2023-06-22T08:32:34;95545.69;;;40.94;25.50
11124;BME280;5616;42.692;23.312;2023-06-22T08:35:01;95546.38;;;40.45;27.78
11124;BME280;5616;42.692;23.312;2023-06-22T08:37:28;95538.31;;;39.53;28.59
11124;BME280;5616;42.692;23.312;2023-06-22T08:39:57;95539.88;;;38.72;29.35
11124;BME280;5616;42.692;23.312;2023-06-22T08:42:24;95540.97;;;39.18;30.48
11124;BME280;5616;42.692;23.312;2023-06-22T08:44:51;95549.25;;;40.75;28.51
11124;BME280;5616;42.692;23.312;2023-06-22T08:47:19;95549.34;;;40.82;25.86
11124;BME280;5616;42.692;23.312;2023-06-22T08:49:48;95533.41;;;41.00;25.87
11124;BME280;5616;42.692;23.312;2023-06-22T08:52:15;95530.03;;;42.22;25.72
11124;BME280;5616;42.692;23.312;2023-06-22T08:54:42;95538.94;;;42.96;25.06
11124;BME280;5616;42.692;23.312;2023-06-22T08:57:08;95531.09;;;43.42;24.42
11124;BME280;5616;42.692;23.312;2023-06-22T08:59:35;95522.03;;;42.73;23.40
11124;BME280;5616;42.692;23.312;2023-06-22T09:02:02;95531.84;;;42.91;24.04
11124;BME280;5616;42.692;23.312;2023-06-22T09:04:29;95525.41;;;42.22;24.40
11124;BME280;5616;42.692;23.312;2023-06-22T09:07:01;95518.25;;;42.88;22.76
11124;BME280;5616;42.692;23.312;2023-06-22T09:09:28;95524.31;;;42.71;24.56
11124;BME280;5616;42.692;23.312;2023-06-22T09:11:54;95527.00;;;42.27;24.13
11124;BME280;5616;42.692;23.312;2023-06-22T09:14:21;95530.50;;;42.31;25.23
11124;BME280;5616;42.692;23.312;2023-06-22T09:16:48;95526.09;;;42.93;25.17
11124;BME280;5616;42.692;23.312;2023-06-22T09:19:15;95523.22;;;42.79;23.75
11124;BME280;5616;42.692;23.312;2023-06-22T09:21:42;95527.22;;;42.92;23.29
11124;BME280;5616;42.692;23.312;2023-06-22T09:24:10;95524.81;;;43.31;23.58
11124;BME280;5616;42.692;23.312;2023-06-22T09:26:37;95519.66;;;43.18;21.75
11124;BME280;5616;42.692;23.312;2023-06-22T09:29:04;95524.13;;;43.44;22.40
11124;BME280;5616;42.692;23.312;2023-06-22T09:31:31;95525.53;;;42.77;21.26
11124;BME280;5616;42.692;23.312;2023-06-22T09:33:58;95537.66;;;42.46;22.70
11124;BME280;5616;42.692;23.312;2023-06-22T09:36:25;95533.56;;;41.92;24.03
11124;BME280;5616;42.692;23.312;2023-06-22T09:38:52;95528.38;;;41.02;24.03
11124;BME280;5616;42.692;23.312;2023-06-22T09:41:22;95537.50;;;40.25;24.33
11124;BME280;5616;42.692;23.312;2023-06-22T09:43:49;95522.25;;;38.47;27.08
11124;BME280;5616;42.692;23.312;2023-06-22T09:46:16;95519.09;;;37.22;31.03
11124;BME280;5616;42.692;23.312;2023-06-22T09:48:43;95516.25;;;36.58;29.15
11124;BME280;5616;42.692;23.312;2023-06-22T09:51:11;95516.56;;;35.58;33.85
11124;BME280;5616;42.692;23.312;2023-06-22T09:53:38;95504.22;;;35.36;34.02
11124;BME280;5616;42.692;23.312;2023-06-22T09:56:04;95500.94;;;35.01;34.70
11124;BME280;5616;42.692;23.312;2023-06-22T09:58:33;95495.47;;;34.60;35.11
11124;BME280;5616;42.692;23.312;2023-06-22T10:00:59;95508.97;;;34.72;36.86
11124;BME280;5616;42.692;23.312;2023-06-22T10:03:26;95500.84;;;34.60;33.42
11124;BME280;5616;42.692;23.312;2023-06-22T10:05:53;95495.97;;;34.45;33.81
11124;BME280;5616;42.692;23.312;2023-06-22T10:08:20;95496.06;;;34.02;36.94
11124;BME280;5616;42.692;23.312;2023-06-22T10:10:47;95487.72;;;33.95;38.33
11124;BME280;5616;42.692;23.312;2023-06-22T10:13:13;95489.00;;;33.72;34.88
11124;BME280;5616;42.692;23.312;2023-06-22T10:15:42;95494.38;;;33.63;38.18
11124;BME280;5616;42.692;23.312;2023-06-22T10:18:10;95490.56;;;33.47;37.54
11124;BME280;5616;42.692;23.312;2023-06-22T10:20:37;95490.56;;;33.30;37.83
11124;BME280;5616;42.692;23.312;2023-06-22T10:23:04;95488.03;;;33.08;35.61
11124;BME280;5616;42.692;23.312;2023-06-22T10:25:31;95483.50;;;32.78;37.63
11124;BME280;5616;42.692;23.312;2023-06-22T10:27:58;95484.63;;;32.85;37.92
11124;BME280;5616;42.692;23.312;2023-06-22T10:30:25;95489.69;;;32.95;36.22
11124;BME280;5616;42.692;23.312;2023-06-22T10:32:53;95481.00;;;32.42;36.45
11124;BME280;5616;42.692;23.312;2023-06-22T10:35:20;95483.75;;;32.59;35.40
11124;BME280;5616;42.692;23.312;2023-06-22T10:37:47;95474.53;;;32.34;35.57
11124;BME280;5616;42.692;23.312;2023-06-22T10:40:15;95478.31;;;32.73;37.53
11124;BME280;5616;42.692;23.312;2023-06-22T10:42:42;95470.75;;;32.66;35.38
11124;BME280;5616;42.692;23.312;2023-06-22T10:45:09;95476.56;;;32.68;34.76
11124;BME280;5616;42.692;23.312;2023-06-22T10:47:37;95475.94;;;32.71;34.31
11124;BME280;5616;42.692;23.312;2023-06-22T10:50:06;95467.44;;;32.60;35.92
11124;BME280;5616;42.692;23.312;2023-06-22T10:52:33;95465.28;;;32.49;37.42
11124;BME280;5616;42.692;23.312;2023-06-22T10:55:00;95472.84;;;32.47;39.41
11124;BME280;5616;42.692;23.312;2023-06-22T10:57:27;95457.09;;;32.45;37.80
11124;BME280;5616;42.692;23.312;2023-06-22T10:59:53;95461.22;;;32.51;39.14
11124;BME280;5616;42.692;23.312;2023-06-22T11:02:20;95459.16;;;32.40;38.87
11124;BME280;5616;42.692;23.312;2023-06-22T11:04:47;95458.00;;;32.32;36.28
11124;BME280;5616;42.692;23.312;2023-06-22T11:07:15;95460.09;;;32.44;38.57
11124;BME280;5616;42.692;23.312;2023-06-22T11:09:42;95464.56;;;32.57;38.46
11124;BME280;5616;42.692;23.312;2023-06-22T11:12:09;95457.03;;;32.28;37.44
11124;BME280;5616;42.692;23.312;2023-06-22T11:14:36;95462.91;;;32.39;35.10
11124;BME280;5616;42.692;23.312;2023-06-22T11:17:03;95449.53;;;32.39;35.89
11124;BME280;5616;42.692;23.312;2023-06-22T11:19:30;95442.78;;;32.41;35.19
11124;BME280;5616;42.692;23.312;2023-06-22T11:21:57;95448.84;;;32.64;38.84
11124;BME280;5616;42.692;23.312;2023-06-22T11:24:25;95435.34;;;32.78;37.91
11124;BME280;5616;42.692;23.312;2023-06-22T11:26:52;95442.31;;;32.87;34.95
11124;BME280;5616;42.692;23.312;2023-06-22T11:29:18;95441.84;;;32.94;35.05
11124;BME280;5616;42.692;23.312;2023-06-22T11:31:45;95436.97;;;32.96;37.42
11124;BME280;5616;42.692;23.312;2023-06-22T11:34:12;95434.75;;;32.81;35.88
11124;BME280;5616;42.692;23.312;2023-06-22T11:36:39;95430.63;;;32.66;38.52
11124;BME280;5616;42.692;23.312;2023-06-22T11:39:08;95435.19;;;32.65;38.20
11124;BME280;5616;42.692;23.312;2023-06-22T11:41:36;95436.56;;;32.54;38.02
11124;BME280;5616;42.692;23.312;2023-06-22T11:44:03;95428.72;;;32.27;38.89
11124;BME280;5616;42.692;23.312;2023-06-22T11:46:31;95431.34;;;31.88;43.25
11124;BME280;5616;42.692;23.312;2023-06-22T11:48:58;95426.41;;;31.73;41.35
11124;BME280;5616;42.692;23.312;2023-06-22T11:51:25;95420.84;;;31.61;39.44
11124;BME280;5616;42.692;23.312;2023-06-22T11:53:52;95416.38;;;31.34;46.06
11124;BME280;5616;42.692;23.312;2023-06-22T11:56:18;95420.72;;;31.30;38.81
11124;BME280;5616;42.692;23.312;2023-06-22T11:58:47;95423.22;;;31.26;43.97
11124;BME280;5616;42.692;23.312;2023-06-22T12:01:14;95429.72;;;31.34;45.00
11124;BME280;5616;42.692;23.312;2023-06-22T12:03:40;95433.72;;;31.45;44.19
11124;BME280;5616;42.692;23.312;2023-06-22T12:06:08;95429.47;;;31.44;41.20
11124;BME280;5616;42.692;23.312;2023-06-22T12:08:35;95422.06;;;31.41;43.50
11124;BME280;5616;42.692;23.312;2023-06-22T12:11:02;95430.59;;;31.29;41.32
11124;BME280;5616;42.692;23.312;2023-06-22T12:13:29;95433.94;;;31.35;41.61
11124;BME280;5616;42.692;23.312;2023-06-22T12:15:57;95448.31;;;31.25;39.61
11124;BME280;5616;42.692;23.312;2023-06-22T12:18:24;95441.75;;;31.09;40.82
11124;BME280;5616;42.692;23.312;2023-06-22T12:20:50;95435.84;;;30.99;41.99
11124;BME280;5616;42.692;23.312;2023-06-22T12:23:17;95443.94;;;30.80;51.00
11124;BME280;5616;42.692;23.312;2023-06-22T12:25:45;95433.63;;;30.38;48.27
11124;BME280;5616;42.692;23.312;2023-06-22T12:28:12;95449.47;;;30.15;48.36
11124;BME280;5616;42.692;23.312;2023-06-22T12:30:39;95458.09;;;29.80;51.19
11124;BME280;5616;42.692;23.312;2023-06-22T12:33:07;95468.75;;;29.43;52.17
11124;BME280;5616;42.692;23.312;2023-06-22T12:35:34;95478.16;;;29.17;52.38
11124;BME280;5616;42.692;23.312;2023-06-22T12:38:01;95485.72;;;28.67;55.85
11124;BME280;5616;42.692;23.312;2023-06-22T12:40:28;95484.97;;;28.38;56.70
11124;BME280;5616;42.692;23.312;2023-06-22T12:42:55;95488.53;;;28.28;57.04
11124;BME280;5616;42.692;23.312;2023-06-22T12:45:21;95480.44;;;28.15;57.87
11124;BME280;5616;42.692;23.312;2023-06-22T12:47:48;95474.94;;;28.06;59.20
11124;BME280;5616;42.692;23.312;2023-06-22T12:50:17;95487.03;;;27.88;59.71
11124;BME280;5616;42.692;23.312;2023-06-22T12:52:44;95503.97;;;27.59;61.24
11124;BME280;5616;42.692;23.312;2023-06-22T12:55:11;95504.59;;;27.46;61.09
11124;BME280;5616;42.692;23.312;2023-06-22T12:57:37;95503.34;;;27.33;60.52
11124;BME280;5616;42.692;23.312;2023-06-22T13:00:06;95497.66;;;27.06;61.37
11124;BME280;5616;42.692;23.312;2023-06-22T13:02:35;95496.31;;;27.08;60.88